sensor_id;sensor_type;location;lat;lon;timestamp;P1;durP1;ratioP1;P2;durP2;ratioP2
1262;SDS011;62267;50.112;8.704;2023-01-25T00:02:02;18.07;;;11.47;;
1262;SDS011;62267;50.112;8.704;2023-01-25T00:04:30;16.53;;;11.20;;
1262;SDS011;62267;50.112;8.704;2023-01-25T00:06:57;15.47;;;10.40;;
1262;SDS011;62267;50.112;8.704;2023-01-25T00:09:25;18.10;;;11.80;;
1262;SDS011;62267;50.112;8.704;2023-01-25T00:11:52;19.27;;;11.20;;
1262;SDS011;62267;50.112;8.704;2023-01-25T00:14:23;15.13;;;11.13;;
1262;SDS011;62267;50.112;8.704;2023-01-25T00:16:50;17.23;;;11.20;;
1262;SDS011;62267;50.112;8.704;2023-01-25T00:19:18;16.90;;;11.40;;
1262;SDS011;62267;50.112;8.704;2023-01-25T00:21:47;21.73;;;12.37;;
1262;SDS011;62267;50.112;8.704;2023-01-25T00:24:15;21.87;;;13.57;;
1262;SDS011;62267;50.112;8.704;2023-01-25T00:26:43;17.67;;;11.37;;
1262;SDS011;62267;50.112;8.704;2023-01-25T00:29:12;18.23;;;12.07;;
1262;SDS011;62267;50.112;8.704;2023-01-25T00:36:56;15.47;;;10.30;;
1262;SDS011;62267;50.112;8.704;2023-01-25T00:39:24;19.73;;;11.73;;
1262;SDS011;62267;50.112;8.704;2023-01-25T00:41:53;16.77;;;11.37;;
1262;SDS011;62267;50.112;8.704;2023-01-25T00:44:20;17.53;;;12.23;;
1262;SDS011;62267;50.112;8.704;2023-01-25T00:46:48;15.77;;;10.27;;
1262;SDS011;62267;50.112;8.704;2023-01-25T00:51:47;16.67;;;11.20;;
1262;SDS011;62267;50.112;8.704;2023-01-25T00:54:14;17.80;;;11.73;;
1262;SDS011;62267;50.112;8.704;2023-01-25T00:56:43;19.80;;;13.70;;
1262;SDS011;62267;50.112;8.704;2023-01-25T00:59:11;15.90;;;11.23;;
1262;SDS011;62267;50.112;8.704;2023-01-25T01:01:40;17.40;;;11.70;;
1262;SDS011;62267;50.112;8.704;2023-01-25T01:04:07;16.47;;;11.80;;
1262;SDS011;62267;50.112;8.704;2023-01-25T01:06:36;18.17;;;12.20;;
1262;SDS011;62267;50.112;8.704;2023-01-25T01:09:05;16.30;;;11.33;;
1262;SDS011;62267;50.112;8.704;2023-01-25T01:11:33;21.00;;;11.67;;
1262;SDS011;62267;50.112;8.704;2023-01-25T01:14:02;21.20;;;11.77;;
1262;SDS011;62267;50.112;8.704;2023-01-25T01:16:30;17.23;;;11.37;;
1262;SDS011;62267;50.112;8.704;2023-01-25T01:18:57;14.80;;;10.73;;
1262;SDS011;62267;50.112;8.704;2023-01-25T01:21:25;17.17;;;11.50;;
1262;SDS011;62267;50.112;8.704;2023-01-25T01:23:53;16.10;;;11.57;;
1262;SDS011;62267;50.112;8.704;2023-01-25T01:26:21;16.33;;;11.53;;
1262;SDS011;62267;50.112;8.704;2023-01-25T01:28:50;17.60;;;11.77;;
1262;SDS011;62267;50.112;8.704;2023-01-25T01:31:18;14.00;;;10.50;;
1262;SDS011;62267;50.112;8.704;2023-01-25T01:33:55;14.37;;;11.00;;
1262;SDS011;62267;50.112;8.704;2023-01-25T01:36:25;14.63;;;10.67;;
1262;SDS011;62267;50.112;8.704;2023-01-25T01:38:53;14.93;;;10.43;;
1262;SDS011;62267;50.112;8.704;2023-01-25T01:41:21;16.87;;;11.13;;
1262;SDS011;62267;50.112;8.704;2023-01-25T01:43:49;16.07;;;11.50;;
1262;SDS011;62267;50.112;8.704;2023-01-25T01:46:29;15.40;;;11.13;;
1262;SDS011;62267;50.112;8.704;2023-01-25T01:49:01;13.67;;;10.40;;
1262;SDS011;62267;50.112;8.704;2023-01-25T01:57:11;17.93;;;11.40;;
1262;SDS011;62267;50.112;8.704;2023-01-25T01:59:42;17.00;;;11.40;;
1262;SDS011;62267;50.112;8.704;2023-01-25T02:02:11;16.73;;;11.27;;
1262;SDS011;62267;50.112;8.704;2023-01-25T02:04:39;17.57;;;11.37;;
1262;SDS011;62267;50.112;8.704;2023-01-25T02:07:30;17.50;;;10.80;;
1262;SDS011;62267;50.112;8.704;2023-01-25T02:10:00;13.07;;;10.27;;
1262;SDS011;62267;50.112;8.704;2023-01-25T02:12:28;15.00;;;11.40;;
1262;SDS011;62267;50.112;8.704;2023-01-25T02:14:56;18.23;;;11.33;;
1262;SDS011;62267;50.112;8.704;2023-01-25T02:17:27;16.17;;;10.83;;
1262;SDS011;62267;50.112;8.704;2023-01-25T02:20:07;15.60;;;11.27;;
1262;SDS011;62267;50.112;8.704;2023-01-25T02:25:26;19.30;;;13.03;;
1262;SDS011;62267;50.112;8.704;2023-01-25T02:28:06;17.33;;;10.63;;
1262;SDS011;62267;50.112;8.704;2023-01-25T02:30:35;14.90;;;11.20;;
1262;SDS011;62267;50.112;8.704;2023-01-25T02:33:03;15.57;;;11.57;;
1262;SDS011;62267;50.112;8.704;2023-01-25T02:35:47;18.00;;;11.60;;
1262;SDS011;62267;50.112;8.704;2023-01-25T02:38:19;17.03;;;11.27;;
1262;SDS011;62267;50.112;8.704;2023-01-25T02:40:52;16.40;;;11.93;;
1262;SDS011;62267;50.112;8.704;2023-01-25T02:43:22;16.67;;;12.10;;
1262;SDS011;62267;50.112;8.704;2023-01-25T02:45:51;16.70;;;11.60;;
1262;SDS011;62267;50.112;8.704;2023-01-25T02:48:21;17.37;;;10.87;;
1262;SDS011;62267;50.112;8.704;2023-01-25T02:50:48;17.17;;;12.43;;
1262;SDS011;62267;50.112;8.704;2023-01-25T02:53:16;14.07;;;9.80;;
1262;SDS011;62267;50.112;8.704;2023-01-25T02:55:43;18.20;;;12.13;;
1262;SDS011;62267;50.112;8.704;2023-01-25T02:58:11;18.27;;;11.77;;
1262;SDS011;62267;50.112;8.704;2023-01-25T03:00:39;16.50;;;11.13;;
1262;SDS011;62267;50.112;8.704;2023-01-25T03:03:07;15.57;;;10.00;;
1262;SDS011;62267;50.112;8.704;2023-01-25T03:05:34;16.43;;;11.03;;
1262;SDS011;62267;50.112;8.704;2023-01-25T03:08:02;15.30;;;11.30;;
1262;SDS011;62267;50.112;8.704;2023-01-25T03:10:29;15.50;;;10.67;;
1262;SDS011;62267;50.112;8.704;2023-01-25T03:12:57;15.97;;;11.20;;
1262;SDS011;62267;50.112;8.704;2023-01-25T03:15:24;19.07;;;12.03;;
1262;SDS011;62267;50.112;8.704;2023-01-25T03:17:52;18.10;;;11.47;;
1262;SDS011;62267;50.112;8.704;2023-01-25T03:20:21;15.10;;;10.77;;
1262;SDS011;62267;50.112;8.704;2023-01-25T03:22:48;15.17;;;11.20;;
1262;SDS011;62267;50.112;8.704;2023-01-25T03:25:16;16.93;;;11.20;;
1262;SDS011;62267;50.112;8.704;2023-01-25T03:27:54;17.23;;;11.60;;
1262;SDS011;62267;50.112;8.704;2023-01-25T03:30:22;14.47;;;11.60;;
1262;SDS011;62267;50.112;8.704;2023-01-25T03:32:50;17.93;;;11.63;;
1262;SDS011;62267;50.112;8.704;2023-01-25T03:35:18;19.10;;;11.60;;
1262;SDS011;62267;50.112;8.704;2023-01-25T03:37:46;17.83;;;11.17;;
1262;SDS011;62267;50.112;8.704;2023-01-25T03:40:13;15.03;;;11.23;;
1262;SDS011;62267;50.112;8.704;2023-01-25T03:42:45;22.57;;;13.70;;
1262;SDS011;62267;50.112;8.704;2023-01-25T03:45:12;20.80;;;12.60;;
1262;SDS011;62267;50.112;8.704;2023-01-25T03:47:40;15.73;;;11.07;;
1262;SDS011;62267;50.112;8.704;2023-01-25T03:50:08;18.17;;;12.00;;
1262;SDS011;62267;50.112;8.704;2023-01-25T03:52:36;16.13;;;11.60;;
1262;SDS011;62267;50.112;8.704;2023-01-25T03:55:07;20.13;;;12.23;;
1262;SDS011;62267;50.112;8.704;2023-01-25T03:57:39;17.50;;;11.50;;
1262;SDS011;62267;50.112;8.704;2023-01-25T04:00:08;17.00;;;11.23;;
1262;SDS011;62267;50.112;8.704;2023-01-25T04:02:40;16.30;;;11.00;;
1262;SDS011;62267;50.112;8.704;2023-01-25T04:05:11;20.80;;;12.50;;
1262;SDS011;62267;50.112;8.704;2023-01-25T04:07:40;18.17;;;11.60;;
1262;SDS011;62267;50.112;8.704;2023-01-25T04:10:08;17.80;;;11.53;;
1262;SDS011;62267;50.112;8.704;2023-01-25T04:12:39;17.13;;;11.10;;
1262;SDS011;62267;50.112;8.704;2023-01-25T04:15:06;19.33;;;12.27;;
1262;SDS011;62267;50.112;8.704;2023-01-25T04:17:34;17.80;;;12.30;;
1262;SDS011;62267;50.112;8.704;2023-01-25T04:20:13;16.97;;;10.17;;
1262;SDS011;62267;50.112;8.704;2023-01-25T04:22:40;14.77;;;11.30;;
1262;SDS011;62267;50.112;8.704;2023-01-25T04:25:08;22.57;;;13.10;;
1262;SDS011;62267;50.112;8.704;2023-01-25T04:27:42;16.53;;;10.93;;
1262;SDS011;62267;50.112;8.704;2023-01-25T04:30:13;18.33;;;10.50;;
1262;SDS011;62267;50.112;8.704;2023-01-25T04:32:43;18.07;;;11.50;;
1262;SDS011;62267;50.112;8.704;2023-01-25T04:35:27;18.07;;;10.67;;
1262;SDS011;62267;50.112;8.704;2023-01-25T04:37:55;19.00;;;11.50;;
1262;SDS011;62267;50.112;8.704;2023-01-25T04:40:27;19.17;;;12.13;;
1262;SDS011;62267;50.112;8.704;2023-01-25T04:42:55;16.40;;;11.20;;
1262;SDS011;62267;50.112;8.704;2023-01-25T04:45:23;18.60;;;11.30;;
1262;SDS011;62267;50.112;8.704;2023-01-25T04:47:55;18.70;;;12.90;;
1262;SDS011;62267;50.112;8.704;2023-01-25T04:50:23;16.37;;;11.30;;
1262;SDS011;62267;50.112;8.704;2023-01-25T04:52:51;18.63;;;11.80;;
1262;SDS011;62267;50.112;8.704;2023-01-25T04:55:19;16.30;;;11.27;;
1262;SDS011;62267;50.112;8.704;2023-01-25T04:57:48;20.27;;;12.77;;
1262;SDS011;62267;50.112;8.704;2023-01-25T05:00:16;19.10;;;12.50;;
1262;SDS011;62267;50.112;8.704;2023-01-25T05:02:45;18.17;;;11.40;;
1262;SDS011;62267;50.112;8.704;2023-01-25T05:05:12;17.67;;;12.13;;
1262;SDS011;62267;50.112;8.704;2023-01-25T05:07:41;18.93;;;12.37;;
1262;SDS011;62267;50.112;8.704;2023-01-25T05:10:08;18.00;;;11.33;;
1262;SDS011;62267;50.112;8.704;2023-01-25T05:12:40;20.30;;;13.80;;
1262;SDS011;62267;50.112;8.704;2023-01-25T05:15:08;19.83;;;11.43;;
1262;SDS011;62267;50.112;8.704;2023-01-25T05:17:36;17.27;;;11.90;;
1262;SDS011;62267;50.112;8.704;2023-01-25T05:20:04;22.33;;;13.00;;
1262;SDS011;62267;50.112;8.704;2023-01-25T05:22:31;23.80;;;13.47;;
1262;SDS011;62267;50.112;8.704;2023-01-25T05:24:58;22.07;;;13.73;;
1262;SDS011;62267;50.112;8.704;2023-01-25T05:27:28;17.93;;;12.90;;
1262;SDS011;62267;50.112;8.704;2023-01-25T05:29:55;19.10;;;11.87;;
1262;SDS011;62267;50.112;8.704;2023-01-25T05:32:38;19.30;;;11.67;;
1262;SDS011;62267;50.112;8.704;2023-01-25T05:35:06;20.97;;;11.70;;
1262;SDS011;62267;50.112;8.704;2023-01-25T05:37:37;18.40;;;10.87;;
1262;SDS011;62267;50.112;8.704;2023-01-25T05:40:08;17.50;;;12.27;;
1262;SDS011;62267;50.112;8.704;2023-01-25T05:42:37;19.43;;;12.33;;
1262;SDS011;62267;50.112;8.704;2023-01-25T05:45:12;21.07;;;13.13;;
1262;SDS011;62267;50.112;8.704;2023-01-25T05:47:40;18.53;;;11.63;;
1262;SDS011;62267;50.112;8.704;2023-01-25T05:50:08;21.17;;;12.40;;
1262;SDS011;62267;50.112;8.704;2023-01-25T05:52:58;19.83;;;12.90;;
1262;SDS011;62267;50.112;8.704;2023-01-25T05:55:27;22.67;;;13.33;;
1262;SDS011;62267;50.112;8.704;2023-01-25T05:57:56;18.90;;;11.83;;
1262;SDS011;62267;50.112;8.704;2023-01-25T06:00:24;19.30;;;11.90;;
1262;SDS011;62267;50.112;8.704;2023-01-25T06:02:51;19.17;;;11.20;;
1262;SDS011;62267;50.112;8.704;2023-01-25T06:05:23;17.50;;;12.07;;
1262;SDS011;62267;50.112;8.704;2023-01-25T06:07:53;16.97;;;12.23;;
1262;SDS011;62267;50.112;8.704;2023-01-25T06:10:23;15.90;;;11.30;;
1262;SDS011;62267;50.112;8.704;2023-01-25T06:12:50;19.43;;;13.07;;
1262;SDS011;62267;50.112;8.704;2023-01-25T06:15:17;18.87;;;12.70;;
1262;SDS011;62267;50.112;8.704;2023-01-25T06:17:44;19.73;;;12.83;;
1262;SDS011;62267;50.112;8.704;2023-01-25T06:20:22;17.43;;;12.37;;
1262;SDS011;62267;50.112;8.704;2023-01-25T06:23:05;19.53;;;13.07;;
1262;SDS011;62267;50.112;8.704;2023-01-25T06:25:32;17.07;;;12.27;;
1262;SDS011;62267;50.112;8.704;2023-01-25T06:28:00;21.00;;;12.90;;
1262;SDS011;62267;50.112;8.704;2023-01-25T06:30:27;18.53;;;12.53;;
1262;SDS011;62267;50.112;8.704;2023-01-25T06:32:58;17.50;;;12.03;;
1262;SDS011;62267;50.112;8.704;2023-01-25T06:35:25;17.67;;;12.07;;
1262;SDS011;62267;50.112;8.704;2023-01-25T06:37:56;20.90;;;12.30;;
1262;SDS011;62267;50.112;8.704;2023-01-25T06:40:24;16.60;;;12.50;;
1262;SDS011;62267;50.112;8.704;2023-01-25T06:42:51;21.07;;;14.10;;
1262;SDS011;62267;50.112;8.704;2023-01-25T06:45:19;19.47;;;13.27;;
1262;SDS011;62267;50.112;8.704;2023-01-25T06:47:47;19.10;;;12.67;;
1262;SDS011;62267;50.112;8.704;2023-01-25T06:50:14;20.13;;;13.10;;
1262;SDS011;62267;50.112;8.704;2023-01-25T06:52:49;18.43;;;13.87;;
1262;SDS011;62267;50.112;8.704;2023-01-25T06:55:17;18.93;;;13.20;;
1262;SDS011;62267;50.112;8.704;2023-01-25T06:57:44;17.70;;;12.40;;
1262;SDS011;62267;50.112;8.704;2023-01-25T07:00:11;19.40;;;13.57;;
1262;SDS011;62267;50.112;8.704;2023-01-25T07:02:39;27.60;;;15.73;;
1262;SDS011;62267;50.112;8.704;2023-01-25T07:05:08;23.40;;;15.17;;
1262;SDS011;62267;50.112;8.704;2023-01-25T07:07:36;19.90;;;13.00;;
1262;SDS011;62267;50.112;8.704;2023-01-25T07:10:03;20.43;;;13.33;;
1262;SDS011;62267;50.112;8.704;2023-01-25T07:12:30;20.70;;;12.33;;
1262;SDS011;62267;50.112;8.704;2023-01-25T07:14:58;20.47;;;12.83;;
1262;SDS011;62267;50.112;8.704;2023-01-25T07:17:25;21.33;;;13.40;;
1262;SDS011;62267;50.112;8.704;2023-01-25T07:19:52;18.43;;;13.30;;
1262;SDS011;62267;50.112;8.704;2023-01-25T07:22:22;21.70;;;13.43;;
1262;SDS011;62267;50.112;8.704;2023-01-25T07:24:49;23.50;;;13.57;;
1262;SDS011;62267;50.112;8.704;2023-01-25T07:27:19;19.13;;;12.23;;
1262;SDS011;62267;50.112;8.704;2023-01-25T07:29:48;21.60;;;14.30;;
1262;SDS011;62267;50.112;8.704;2023-01-25T07:32:15;18.73;;;12.40;;
1262;SDS011;62267;50.112;8.704;2023-01-25T07:34:42;17.87;;;12.23;;
1262;SDS011;62267;50.112;8.704;2023-01-25T07:37:11;20.77;;;13.30;;
1262;SDS011;62267;50.112;8.704;2023-01-25T07:39:41;17.77;;;12.53;;
1262;SDS011;62267;50.112;8.704;2023-01-25T07:42:13;24.37;;;14.93;;
1262;SDS011;62267;50.112;8.704;2023-01-25T07:44:49;19.67;;;12.67;;
1262;SDS011;62267;50.112;8.704;2023-01-25T07:47:17;23.37;;;14.37;;
1262;SDS011;62267;50.112;8.704;2023-01-25T07:49:44;23.57;;;13.90;;
1262;SDS011;62267;50.112;8.704;2023-01-25T07:52:12;19.00;;;11.90;;
1262;SDS011;62267;50.112;8.704;2023-01-25T07:54:40;19.37;;;12.73;;
1262;SDS011;62267;50.112;8.704;2023-01-25T07:57:09;22.73;;;12.50;;
1262;SDS011;62267;50.112;8.704;2023-01-25T07:59:36;20.20;;;13.10;;
1262;SDS011;62267;50.112;8.704;2023-01-25T08:02:04;19.73;;;11.63;;
1262;SDS011;62267;50.112;8.704;2023-01-25T08:04:31;18.23;;;12.10;;
1262;SDS011;62267;50.112;8.704;2023-01-25T08:06:58;20.80;;;12.40;;
1262;SDS011;62267;50.112;8.704;2023-01-25T08:09:25;18.30;;;12.50;;
1262;SDS011;62267;50.112;8.704;2023-01-25T08:11:53;20.70;;;12.63;;
1262;SDS011;62267;50.112;8.704;2023-01-25T08:14:21;23.43;;;14.07;;
1262;SDS011;62267;50.112;8.704;2023-01-25T08:16:49;23.90;;;13.60;;
1262;SDS011;62267;50.112;8.704;2023-01-25T08:19:17;19.77;;;13.23;;
1262;SDS011;62267;50.112;8.704;2023-01-25T08:21:45;20.97;;;13.00;;
1262;SDS011;62267;50.112;8.704;2023-01-25T08:24:12;23.40;;;13.93;;
1262;SDS011;62267;50.112;8.704;2023-01-25T08:26:42;22.97;;;14.10;;
1262;SDS011;62267;50.112;8.704;2023-01-25T08:29:10;18.90;;;12.50;;
1262;SDS011;62267;50.112;8.704;2023-01-25T08:31:38;18.40;;;12.17;;
1262;SDS011;62267;50.112;8.704;2023-01-25T08:34:06;20.47;;;12.40;;
1262;SDS011;62267;50.112;8.704;2023-01-25T08:36:33;17.93;;;12.80;;
1262;SDS011;62267;50.112;8.704;2023-01-25T08:39:02;21.17;;;12.80;;
1262;SDS011;62267;50.112;8.704;2023-01-25T08:41:30;21.87;;;12.17;;
1262;SDS011;62267;50.112;8.704;2023-01-25T08:43:58;21.30;;;13.97;;
1262;SDS011;62267;50.112;8.704;2023-01-25T08:46:28;23.63;;;12.90;;
1262;SDS011;62267;50.112;8.704;2023-01-25T08:48:57;22.87;;;13.30;;
1262;SDS011;62267;50.112;8.704;2023-01-25T08:51:26;20.97;;;12.67;;
1262;SDS011;62267;50.112;8.704;2023-01-25T08:53:53;24.40;;;14.67;;
1262;SDS011;62267;50.112;8.704;2023-01-25T08:56:20;24.00;;;14.00;;
1262;SDS011;62267;50.112;8.704;2023-01-25T08:58:48;21.90;;;13.20;;
1262;SDS011;62267;50.112;8.704;2023-01-25T09:01:16;21.73;;;12.87;;
1262;SDS011;62267;50.112;8.704;2023-01-25T09:03:46;25.43;;;14.20;;
1262;SDS011;62267;50.112;8.704;2023-01-25T09:06:14;25.80;;;13.93;;
1262;SDS011;62267;50.112;8.704;2023-01-25T09:08:42;24.90;;;14.50;;
1262;SDS011;62267;50.112;8.704;2023-01-25T09:11:11;32.17;;;18.63;;
1262;SDS011;62267;50.112;8.704;2023-01-25T09:13:40;20.87;;;13.10;;
1262;SDS011;62267;50.112;8.704;2023-01-25T09:16:10;26.83;;;13.73;;
1262;SDS011;62267;50.112;8.704;2023-01-25T09:18:38;23.33;;;13.77;;
1262;SDS011;62267;50.112;8.704;2023-01-25T09:21:07;22.97;;;14.10;;
1262;SDS011;62267;50.112;8.704;2023-01-25T09:23:35;25.97;;;12.90;;
1262;SDS011;62267;50.112;8.704;2023-01-25T09:26:16;22.17;;;13.53;;
1262;SDS011;62267;50.112;8.704;2023-01-25T09:28:45;22.50;;;13.87;;
1262;SDS011;62267;50.112;8.704;2023-01-25T09:31:13;19.80;;;12.23;;
1262;SDS011;62267;50.112;8.704;2023-01-25T09:34:02;22.93;;;13.57;;
1262;SDS011;62267;50.112;8.704;2023-01-25T09:36:30;24.90;;;14.03;;
1262;SDS011;62267;50.112;8.704;2023-01-25T09:38:57;21.23;;;13.23;;
1262;SDS011;62267;50.112;8.704;2023-01-25T09:44:11;25.90;;;13.90;;
1262;SDS011;62267;50.112;8.704;2023-01-25T09:52:02;22.37;;;13.33;;
1262;SDS011;62267;50.112;8.704;2023-01-25T09:54:30;29.47;;;14.63;;
1262;SDS011;62267;50.112;8.704;2023-01-25T09:57:35;25.70;;;13.77;;
1262;SDS011;62267;50.112;8.704;2023-01-25T10:00:05;24.73;;;14.37;;
1262;SDS011;62267;50.112;8.704;2023-01-25T10:02:39;20.73;;;13.40;;
1262;SDS011;62267;50.112;8.704;2023-01-25T10:05:18;21.87;;;14.30;;
1262;SDS011;62267;50.112;8.704;2023-01-25T10:10:18;21.30;;;12.20;;
1262;SDS011;62267;50.112;8.704;2023-01-25T10:12:47;23.27;;;13.97;;
1262;SDS011;62267;50.112;8.704;2023-01-25T10:15:19;19.70;;;11.60;;
1262;SDS011;62267;50.112;8.704;2023-01-25T10:20:43;21.70;;;13.00;;
1262;SDS011;62267;50.112;8.704;2023-01-25T10:26:24;29.57;;;14.97;;
1262;SDS011;62267;50.112;8.704;2023-01-25T10:28:55;24.90;;;14.53;;
1262;SDS011;62267;50.112;8.704;2023-01-25T10:31:27;25.23;;;13.37;;
1262;SDS011;62267;50.112;8.704;2023-01-25T10:33:58;26.43;;;13.40;;
1262;SDS011;62267;50.112;8.704;2023-01-25T10:36:28;28.67;;;13.90;;
1262;SDS011;62267;50.112;8.704;2023-01-25T10:38:56;21.93;;;12.90;;
1262;SDS011;62267;50.112;8.704;2023-01-25T10:41:27;29.13;;;15.70;;
1262;SDS011;62267;50.112;8.704;2023-01-25T10:43:57;24.47;;;14.33;;
1262;SDS011;62267;50.112;8.704;2023-01-25T10:46:46;19.97;;;12.23;;
1262;SDS011;62267;50.112;8.704;2023-01-25T10:49:20;25.07;;;13.83;;
1262;SDS011;62267;50.112;8.704;2023-01-25T10:51:49;27.10;;;16.20;;
1262;SDS011;62267;50.112;8.704;2023-01-25T10:54:16;27.63;;;16.47;;
1262;SDS011;62267;50.112;8.704;2023-01-25T10:56:43;23.60;;;15.43;;
1262;SDS011;62267;50.112;8.704;2023-01-25T11:01:48;29.07;;;16.37;;
1262;SDS011;62267;50.112;8.704;2023-01-25T11:06:56;24.53;;;14.33;;
1262;SDS011;62267;50.112;8.704;2023-01-25T11:09:34;27.73;;;14.30;;
1262;SDS011;62267;50.112;8.704;2023-01-25T11:12:02;26.07;;;14.30;;
1262;SDS011;62267;50.112;8.704;2023-01-25T11:14:31;25.40;;;14.80;;
1262;SDS011;62267;50.112;8.704;2023-01-25T11:16:59;23.40;;;14.27;;
1262;SDS011;62267;50.112;8.704;2023-01-25T11:19:35;30.47;;;15.47;;
1262;SDS011;62267;50.112;8.704;2023-01-25T11:22:04;23.33;;;14.67;;
1262;SDS011;62267;50.112;8.704;2023-01-25T11:24:33;25.50;;;13.90;;
1262;SDS011;62267;50.112;8.704;2023-01-25T11:27:10;23.97;;;14.00;;
1262;SDS011;62267;50.112;8.704;2023-01-25T11:29:40;29.37;;;14.83;;
1262;SDS011;62267;50.112;8.704;2023-01-25T11:32:18;22.63;;;15.10;;
1262;SDS011;62267;50.112;8.704;2023-01-25T11:34:48;28.37;;;14.43;;
1262;SDS011;62267;50.112;8.704;2023-01-25T11:37:38;25.97;;;14.80;;
1262;SDS011;62267;50.112;8.704;2023-01-25T11:43:28;25.63;;;16.57;;
1262;SDS011;62267;50.112;8.704;2023-01-25T11:45:36;24.67;;;13.77;;
1262;SDS011;62267;50.112;8.704;2023-01-25T11:48:27;34.77;;;14.87;;
1262;SDS011;62267;50.112;8.704;2023-01-25T11:51:03;31.23;;;17.50;;
1262;SDS011;62267;50.112;8.704;2023-01-25T11:56:08;22.20;;;14.47;;
1262;SDS011;62267;50.112;8.704;2023-01-25T12:04:24;24.00;;;14.40;;
1262;SDS011;62267;50.112;8.704;2023-01-25T12:07:03;23.60;;;13.70;;
1262;SDS011;62267;50.112;8.704;2023-01-25T12:12:15;29.10;;;15.37;;
1262;SDS011;62267;50.112;8.704;2023-01-25T12:14:51;26.03;;;14.63;;
1262;SDS011;62267;50.112;8.704;2023-01-25T12:17:35;21.50;;;12.23;;
1262;SDS011;62267;50.112;8.704;2023-01-25T12:33:01;27.53;;;14.63;;
1262;SDS011;62267;50.112;8.704;2023-01-25T12:35:41;24.40;;;14.80;;
1262;SDS011;62267;50.112;8.704;2023-01-25T12:38:53;25.53;;;14.60;;
1262;SDS011;62267;50.112;8.704;2023-01-25T12:43:47;26.17;;;15.20;;
1262;SDS011;62267;50.112;8.704;2023-01-25T12:46:22;24.73;;;14.50;;
1262;SDS011;62267;50.112;8.704;2023-01-25T12:48:50;26.43;;;14.20;;
1262;SDS011;62267;50.112;8.704;2023-01-25T12:51:19;23.67;;;14.50;;
1262;SDS011;62267;50.112;8.704;2023-01-25T12:53:47;28.87;;;16.33;;
1262;SDS011;62267;50.112;8.704;2023-01-25T12:56:28;27.30;;;14.30;;
1262;SDS011;62267;50.112;8.704;2023-01-25T12:58:59;28.73;;;14.50;;
1262;SDS011;62267;50.112;8.704;2023-01-25T13:01:32;27.03;;;14.47;;
1262;SDS011;62267;50.112;8.704;2023-01-25T13:09:19;21.03;;;12.90;;
1262;SDS011;62267;50.112;8.704;2023-01-25T13:11:48;26.07;;;14.37;;
1262;SDS011;62267;50.112;8.704;2023-01-25T13:16:47;22.50;;;13.33;;
1262;SDS011;62267;50.112;8.704;2023-01-25T13:22:01;28.93;;;14.87;;
1262;SDS011;62267;50.112;8.704;2023-01-25T13:24:30;29.17;;;15.37;;
1262;SDS011;62267;50.112;8.704;2023-01-25T13:27:43;26.50;;;15.10;;
1262;SDS011;62267;50.112;8.704;2023-01-25T13:29:46;28.87;;;14.87;;
1262;SDS011;62267;50.112;8.704;2023-01-25T13:39:55;23.57;;;14.57;;
1262;SDS011;62267;50.112;8.704;2023-01-25T13:42:23;22.23;;;13.83;;
1262;SDS011;62267;50.112;8.704;2023-01-25T13:44:56;27.43;;;15.10;;
1262;SDS011;62267;50.112;8.704;2023-01-25T13:47:26;29.27;;;16.13;;
1262;SDS011;62267;50.112;8.704;2023-01-25T13:50:03;24.57;;;15.40;;
1262;SDS011;62267;50.112;8.704;2023-01-25T13:52:34;25.50;;;14.10;;
1262;SDS011;62267;50.112;8.704;2023-01-25T13:55:14;26.73;;;14.80;;
1262;SDS011;62267;50.112;8.704;2023-01-25T13:57:42;23.77;;;13.93;;
1262;SDS011;62267;50.112;8.704;2023-01-25T14:00:13;29.27;;;14.77;;
1262;SDS011;62267;50.112;8.704;2023-01-25T14:02:42;28.53;;;16.47;;
1262;SDS011;62267;50.112;8.704;2023-01-25T14:05:19;30.40;;;15.73;;
1262;SDS011;62267;50.112;8.704;2023-01-25T14:07:48;25.10;;;14.40;;
1262;SDS011;62267;50.112;8.704;2023-01-25T14:10:17;30.50;;;14.93;;
1262;SDS011;62267;50.112;8.704;2023-01-25T14:12:51;25.20;;;15.20;;
1262;SDS011;62267;50.112;8.704;2023-01-25T14:15:27;27.97;;;16.27;;
1262;SDS011;62267;50.112;8.704;2023-01-25T14:18:03;27.30;;;16.27;;
1262;SDS011;62267;50.112;8.704;2023-01-25T14:20:31;27.40;;;14.83;;
1262;SDS011;62267;50.112;8.704;2023-01-25T14:22:59;25.50;;;17.23;;
1262;SDS011;62267;50.112;8.704;2023-01-25T14:25:26;28.67;;;16.60;;
1262;SDS011;62267;50.112;8.704;2023-01-25T14:27:58;32.23;;;17.07;;
1262;SDS011;62267;50.112;8.704;2023-01-25T14:30:28;33.80;;;17.50;;
1262;SDS011;62267;50.112;8.704;2023-01-25T14:33:03;27.37;;;16.80;;
1262;SDS011;62267;50.112;8.704;2023-01-25T14:35:45;23.03;;;15.50;;
1262;SDS011;62267;50.112;8.704;2023-01-25T14:38:35;28.37;;;16.13;;
1262;SDS011;62267;50.112;8.704;2023-01-25T14:43:53;28.50;;;17.40;;
1262;SDS011;62267;50.112;8.704;2023-01-25T14:46:28;27.00;;;16.07;;
1262;SDS011;62267;50.112;8.704;2023-01-25T14:51:38;31.20;;;17.57;;
1262;SDS011;62267;50.112;8.704;2023-01-25T14:54:12;28.30;;;15.57;;
1262;SDS011;62267;50.112;8.704;2023-01-25T14:56:43;26.77;;;16.50;;
1262;SDS011;62267;50.112;8.704;2023-01-25T14:59:45;31.13;;;18.20;;
1262;SDS011;62267;50.112;8.704;2023-01-25T15:04:52;25.67;;;16.27;;
1262;SDS011;62267;50.112;8.704;2023-01-25T15:07:40;29.03;;;16.30;;
1262;SDS011;62267;50.112;8.704;2023-01-25T15:12:53;30.90;;;17.67;;
1262;SDS011;62267;50.112;8.704;2023-01-25T15:15:48;24.57;;;15.33;;
1262;SDS011;62267;50.112;8.704;2023-01-25T15:21:02;25.57;;;17.33;;
1262;SDS011;62267;50.112;8.704;2023-01-25T15:23:29;28.47;;;16.40;;
1262;SDS011;62267;50.112;8.704;2023-01-25T15:25:57;25.93;;;16.20;;
1262;SDS011;62267;50.112;8.704;2023-01-25T15:28:26;34.87;;;23.17;;
1262;SDS011;62267;50.112;8.704;2023-01-25T15:30:54;38.20;;;20.10;;
1262;SDS011;62267;50.112;8.704;2023-01-25T15:33:25;31.60;;;17.60;;
1262;SDS011;62267;50.112;8.704;2023-01-25T15:35:53;35.10;;;19.30;;
1262;SDS011;62267;50.112;8.704;2023-01-25T15:38:21;32.03;;;18.93;;
1262;SDS011;62267;50.112;8.704;2023-01-25T15:40:50;35.50;;;20.13;;
1262;SDS011;62267;50.112;8.704;2023-01-25T15:43:18;32.40;;;19.40;;
1262;SDS011;62267;50.112;8.704;2023-01-25T15:45:46;32.13;;;18.77;;
1262;SDS011;62267;50.112;8.704;2023-01-25T15:48:17;32.10;;;19.17;;
1262;SDS011;62267;50.112;8.704;2023-01-25T15:50:46;31.00;;;17.73;;
1262;SDS011;62267;50.112;8.704;2023-01-25T15:53:15;39.17;;;19.67;;
1262;SDS011;62267;50.112;8.704;2023-01-25T15:55:43;34.83;;;20.00;;
1262;SDS011;62267;50.112;8.704;2023-01-25T15:58:13;36.17;;;20.00;;
1262;SDS011;62267;50.112;8.704;2023-01-25T16:00:43;31.13;;;19.43;;
1262;SDS011;62267;50.112;8.704;2023-01-25T16:03:11;40.90;;;19.57;;
1262;SDS011;62267;50.112;8.704;2023-01-25T16:05:38;39.53;;;19.90;;
1262;SDS011;62267;50.112;8.704;2023-01-25T16:08:05;36.60;;;20.33;;
1262;SDS011;62267;50.112;8.704;2023-01-25T16:10:33;31.10;;;16.57;;
1262;SDS011;62267;50.112;8.704;2023-01-25T16:13:00;27.87;;;15.60;;
1262;SDS011;62267;50.112;8.704;2023-01-25T16:15:27;34.07;;;18.30;;
1262;SDS011;62267;50.112;8.704;2023-01-25T16:17:55;36.13;;;18.53;;
1262;SDS011;62267;50.112;8.704;2023-01-25T16:20:22;33.13;;;18.57;;
1262;SDS011;62267;50.112;8.704;2023-01-25T16:22:50;26.80;;;16.00;;
1262;SDS011;62267;50.112;8.704;2023-01-25T16:25:17;32.03;;;16.37;;
1262;SDS011;62267;50.112;8.704;2023-01-25T16:27:45;34.60;;;18.60;;
1262;SDS011;62267;50.112;8.704;2023-01-25T16:30:18;33.63;;;19.70;;
1262;SDS011;62267;50.112;8.704;2023-01-25T16:32:49;43.33;;;18.53;;